Time;durP1;ratioP1;P1;durP2;ratioP2;P2;SDS_P1;SDS_P2;PMS_P1;PMS_P2;Temp;Humidity;BMP_temperature;BMP_pressure;BME280_temperature;BME280_humidity;BME280_pressure;Samples;Min_cycle;Max_cycle;Signal;HPM_P1;HPM_P2
2021/05/15 00:01:51;;;;;;;0.63;0.63;;;12.10;99.90;;;;;;4977938;28;20012;-80
2021/05/15 00:04:17;;;;;;;1.75;0.70;;;12.10;99.90;;;;;;4993805;28;20067;-81
2021/05/15 00:06:44;;;;;;;0.60;0.60;;;12.10;99.90;;;;;;4978711;28;20011;-78
2021/05/15 00:09:09;;;;;;;2.35;0.90;;;12.00;99.90;;;;;;4978561;28;20018;-79
2021/05/15 00:11:35;;;;;;;2.33;0.60;;;12.00;99.90;;;;;;4968920;28;20051;-79
2021/05/15 00:14:03;;;;;;;1.15;0.50;;;11.90;99.90;;;;;;4958261;28;20059;-75
2021/05/15 00:16:28;;;;;;;1.75;0.90;;;11.90;99.90;;;;;;4957007;28;20038;-78
2021/05/15 00:18:54;;;;;;;0.95;0.75;;;11.80;99.90;;;;;;4958203;28;20016;-76
2021/05/15 00:21:20;;;;;;;1.77;0.75;;;11.80;99.90;;;;;;4959589;28;20078;-79
2021/05/15 00:23:47;;;;;;;0.95;0.57;;;11.80;99.90;;;;;;4962662;28;20023;-78
2021/05/15 00:26:14;;;;;;;1.75;0.50;;;11.70;99.90;;;;;;4959178;28;20058;-76
2021/05/15 00:28:40;;;;;;;0.57;0.45;;;11.60;99.90;;;;;;4959695;28;20158;-78
2021/05/15 00:31:06;;;;;;;1.75;0.73;;;11.60;99.90;;;;;;4960799;28;20080;-78
2021/05/15 00:33:32;;;;;;;0.73;0.57;;;11.60;99.90;;;;;;4959220;29;20035;-78
2021/05/15 00:35:57;;;;;;;0.60;0.60;;;11.50;99.90;;;;;;4960097;29;20111;-78
2021/05/15 00:38:23;;;;;;;1.77;0.80;;;11.40;99.90;;;;;;4960965;28;20087;-77
2021/05/15 00:40:48;;;;;;;1.23;0.52;;;11.40;99.90;;;;;;4962053;28;20106;-78
2021/05/15 00:43:14;;;;;;;0.77;0.60;;;11.50;99.90;;;;;;4962798;28;20027;-79
2021/05/15 00:45:39;;;;;;;1.58;0.82;;;11.40;99.90;;;;;;4964011;28;20035;-79
2021/05/15 00:48:05;;;;;;;1.77;0.70;;;11.50;99.90;;;;;;4965718;29;20031;-79
2021/05/15 00:50:32;;;;;;;0.82;0.63;;;11.40;99.90;;;;;;4963957;28;20035;-78
2021/05/15 00:52:58;;;;;;;2.05;0.55;;;11.50;99.90;;;;;;4965445;28;20023;-80
2021/05/15 00:55:25;;;;;;;2.03;0.70;;;11.50;99.90;;;;;;4966042;28;20035;-79
2021/05/15 00:57:52;;;;;;;1.20;0.60;;;11.50;99.90;;;;;;4962078;28;20499;-79
2021/05/15 01:00:18;;;;;;;1.20;0.77;;;11.30;99.90;;;;;;4962451;29;20090;-79
2021/05/15 01:02:44;;;;;;;1.58;0.63;;;11.20;99.90;;;;;;4977672;28;20034;-81
2021/05/15 01:05:11;;;;;;;0.75;0.50;;;11.10;99.90;;;;;;4965234;29;20035;-77
2021/05/15 01:07:37;;;;;;;3.88;0.70;;;11.10;99.90;;;;;;4963300;28;20372;-78
2021/05/15 01:10:05;;;;;;;1.50;0.70;;;11.00;99.90;;;;;;4982780;28;20034;-79
2021/05/15 01:12:31;;;;;;;2.15;0.57;;;10.90;99.90;;;;;;4965058;28;20400;-78
2021/05/15 01:14:58;;;;;;;2.20;0.68;;;10.80;99.90;;;;;;4971686;28;20038;-78
2021/05/15 01:17:23;;;;;;;1.27;0.50;;;10.80;99.90;;;;;;4965107;28;20480;-80
2021/05/15 01:19:49;;;;;;;1.38;0.65;;;10.70;99.90;;;;;;4960016;28;20023;-79
2021/05/15 01:22:16;;;;;;;1.58;0.50;;;10.70;99.90;;;;;;4960044;29;20031;-80
2021/05/15 01:24:44;;;;;;;0.98;0.50;;;10.70;99.90;;;;;;4960092;28;20031;-80
2021/05/15 01:27:12;;;;;;;2.00;0.50;;;10.80;99.90;;;;;;4957868;28;20030;-79
2021/05/15 01:29:38;;;;;;;0.50;0.50;;;10.70;99.90;;;;;;4960408;28;20517;-78
2021/05/15 01:32:04;;;;;;;1.35;0.82;;;10.80;99.90;;;;;;4960928;28;20094;-81
2021/05/15 01:34:31;;;;;;;0.70;0.60;;;10.90;99.90;;;;;;4964328;28;20038;-81
2021/05/15 01:36:57;;;;;;;0.70;0.50;;;10.90;99.90;;;;;;4965135;28;20031;-81
2021/05/15 01:39:22;;;;;;;6.53;0.57;;;11.10;99.90;;;;;;4964192;28;20114;-81
2021/05/15 01:41:49;;;;;;;1.85;0.60;;;11.10;99.90;;;;;;4972737;28;20019;-79
2021/05/15 01:44:16;;;;;;;1.42;0.50;;;11.10;99.90;;;;;;4965251;28;20023;-79
2021/05/15 01:46:42;;;;;;;0.85;0.60;;;11.10;99.90;;;;;;4960374;28;20431;-77
2021/05/15 01:49:09;;;;;;;0.65;0.50;;;11.00;99.90;;;;;;4960316;28;20127;-77
2021/05/15 01:51:35;;;;;;;1.35;0.60;;;11.00;99.90;;;;;;4959144;29;20034;-77
2021/05/15 01:54:00;;;;;;;0.80;0.60;;;11.00;99.90;;;;;;4958250;28;20035;-76
2021/05/15 01:56:29;;;;;;;1.73;0.60;;;11.00;99.90;;;;;;4966407;28;20183;-79
2021/05/15 01:58:56;;;;;;;1.10;0.70;;;11.00;99.90;;;;;;4963801;28;20050;-78
2021/05/15 02:01:26;;;;;;;0.40;0.40;;;10.90;99.90;;;;;;4962043;28;20023;-79
2021/05/15 02:03:52;;;;;;;0.45;0.40;;;10.90;99.90;;;;;;4973582;28;20015;-79
2021/05/15 02:06:18;;;;;;;1.20;0.50;;;11.00;99.90;;;;;;4993745;28;20035;-79
2021/05/15 02:08:46;;;;;;;0.70;0.52;;;10.90;99.90;;;;;;4993715;28;20019;-78
2021/05/15 02:11:15;;;;;;;1.48;0.60;;;10.80;99.90;;;;;;4967937;28;20039;-79
2021/05/15 02:13:42;;;;;;;0.90;0.47;;;10.70;99.90;;;;;;4982017;28;20403;-79
2021/05/15 02:16:07;;;;;;;0.63;0.52;;;10.80;99.90;;;;;;4966870;28;20038;-79
2021/05/15 02:18:33;;;;;;;0.95;0.63;;;10.70;99.90;;;;;;4983346;28;20031;-79
2021/05/15 02:20:58;;;;;;;2.80;0.65;;;10.60;99.90;;;;;;4967674;28;20086;-79
2021/05/15 02:23:25;;;;;;;2.58;0.70;;;10.50;99.90;;;;;;4968230;28;20062;-79
2021/05/15 02:25:53;;;;;;;0.40;0.40;;;10.50;99.90;;;;;;4963226;28;20039;-78
2021/05/15 02:28:18;;;;;;;3.15;0.73;;;10.50;99.90;;;;;;4957329;29;20119;-79
2021/05/15 02:30:45;;;;;;;0.95;0.57;;;10.50;99.90;;;;;;4964827;29;20031;-78
2021/05/15 02:33:11;;;;;;;1.05;0.70;;;10.50;99.90;;;;;;4978745;28;20098;-79
2021/05/15 02:35:37;;;;;;;0.50;0.50;;;10.50;99.90;;;;;;4965062;28;20027;-79
2021/05/15 02:38:05;;;;;;;1.23;0.93;;;10.50;99.90;;;;;;4968680;28;20042;-77
2021/05/15 02:40:31;;;;;;;3.05;0.60;;;10.50;99.90;;;;;;4967342;28;20034;-78
2021/05/15 02:42:56;;;;;;;2.20;0.82;;;10.60;99.90;;;;;;4968641;28;20027;-80
2021/05/15 02:45:24;;;;;;;0.68;0.60;;;10.70;99.90;;;;;;4990386;28;20023;-79
2021/05/15 02:47:53;;;;;;;0.88;0.60;;;10.50;99.90;;;;;;4984014;28;20391;-79
2021/05/15 02:50:20;;;;;;;2.45;1.10;;;10.40;99.90;;;;;;4965727;28;20110;-79
2021/05/15 02:52:45;;;;;;;1.70;0.60;;;10.30;99.90;;;;;;4964300;28;20019;-78
2021/05/15 02:55:15;;;;;;;1.05;0.65;;;10.40;99.90;;;;;;4966068;28;20047;-79
2021/05/15 02:57:42;;;;;;;1.50;0.70;;;10.40;99.90;;;;;;4983594;28;20036;-80
2021/05/15 03:00:10;;;;;;;0.90;0.60;;;10.30;99.90;;;;;;4964778;28;20074;-78
2021/05/15 03:02:36;;;;;;;0.65;0.65;;;10.30;99.90;;;;;;4963418;28;20019;-79
2021/05/15 03:05:05;;;;;;;0.68;0.60;;;10.20;99.90;;;;;;4964386;28;20034;-79
2021/05/15 03:07:30;;;;;;;1.38;0.50;;;10.10;99.90;;;;;;4966434;28;20046;-79
2021/05/15 03:09:56;;;;;;;0.88;0.50;;;10.00;99.90;;;;;;4982816;28;20035;-80
2021/05/15 03:12:22;;;;;;;1.38;0.82;;;10.10;1.00;;;;;;4967473;28;20031;-79
2021/05/15 03:14:47;;;;;;;0.85;0.85;;;10.20;99.90;;;;;;4972228;29;20019;-80
2021/05/15 03:17:13;;;;;;;2.80;0.98;;;10.20;99.90;;;;;;4976780;28;20039;-79
2021/05/15 03:19:38;;;;;;;1.58;0.55;;;10.10;99.90;;;;;;4970896;28;20038;-79
2021/05/15 03:22:04;;;;;;;0.65;0.60;;;10.10;99.90;;;;;;4970391;28;20031;-78
2021/05/15 03:24:32;;;;;;;1.48;0.70;;;10.20;99.90;;;;;;4962147;28;20035;-79
2021/05/15 03:26:58;;;;;;;0.73;0.50;;;10.10;99.90;;;;;;4977641;28;20035;-78
2021/05/15 03:29:25;;;;;;;4.38;1.45;;;10.10;99.90;;;;;;4967162;28;20065;-79
2021/05/15 03:31:51;;;;;;;2.88;0.75;;;9.90;99.90;;;;;;4977760;28;20046;-79
2021/05/15 03:34:17;;;;;;;1.00;0.60;;;10.00;99.90;;;;;;4972750;28;20039;-79
2021/05/15 03:36:43;;;;;;;1.45;0.90;;;10.00;99.90;;;;;;4983906;28;20114;-78
2021/05/15 03:39:08;;;;;;;2.15;0.70;;;10.10;99.90;;;;;;4968157;28;20116;-79
2021/05/15 03:41:34;;;;;;;2.47;0.80;;;10.10;99.90;;;;;;4985573;28;20023;-78
2021/05/15 03:43:59;;;;;;;2.92;1.33;;;10.10;99.90;;;;;;4962740;28;20032;-78
2021/05/15 03:46:25;;;;;;;0.63;0.60;;;10.10;99.90;;;;;;4962964;28;20039;-79
2021/05/15 03:48:51;;;;;;;2.70;0.70;;;10.20;99.90;;;;;;4962794;28;20051;-78
2021/05/15 03:51:16;;;;;;;0.95;0.70;;;10.30;99.90;;;;;;4963386;28;20535;-79
2021/05/15 03:53:42;;;;;;;0.80;0.60;;;10.20;99.90;;;;;;4965024;28;20035;-79
2021/05/15 03:56:08;;;;;;;4.32;0.60;;;10.30;99.90;;;;;;4976880;28;20039;-79
2021/05/15 03:58:33;;;;;;;0.75;0.70;;;10.30;99.90;;;;;;4977735;28;20034;-80
2021/05/15 04:00:59;;;;;;;2.35;0.60;;;10.20;99.90;;;;;;4978415;28;20024;-79
2021/05/15 04:03:24;;;;;;;2.90;0.70;;;10.30;99.90;;;;;;4978182;28;20054;-77
2021/05/15 04:05:50;;;;;;;1.10;0.77;;;10.40;99.90;;;;;;4979328;28;20036;-78
2021/05/15 04:08:17;;;;;;;1.55;0.60;;;10.60;99.90;;;;;;4979490;28;20067;-77
2021/05/15 04:10:42;;;;;;;1.70;0.80;;;10.70;99.90;;;;;;4980345;29;20023;-76
2021/05/15 04:16:13;;;;;;;2.05;0.80;;;11.50;99.90;;;;;;4959671;28;20054;-80
2021/05/15 04:18:39;;;;;;;1.15;1.00;;;11.90;99.90;;;;;;4995853;28;20038;-79
2021/05/15 04:21:05;;;;;;;1.63;0.70;;;12.20;99.90;;;;;;4981263;28;20012;-78
2021/05/15 04:23:30;;;;;;;1.20;0.60;;;12.50;99.90;;;;;;4980845;28;20079;-80
2021/05/15 04:25:56;;;;;;;0.80;0.60;;;12.50;99.90;;;;;;4995313;28;20027;-77
2021/05/15 04:28:23;;;;;;;0.82;0.57;;;12.60;99.90;;;;;;4966814;28;20510;-79
2021/05/15 04:30:49;;;;;;;0.90;0.73;;;12.60;99.90;;;;;;4967871;28;20027;-79
2021/05/15 04:33:14;;;;;;;0.98;0.50;;;12.20;99.90;;;;;;4968442;28;20032;-78
2021/05/15 04:35:40;;;;;;;1.27;0.70;;;11.90;99.90;;;;;;4968385;29;20376;-78
2021/05/15 04:38:06;;;;;;;1.40;0.63;;;11.90;99.90;;;;;;4969337;29;20046;-79
2021/05/15 04:40:34;;;;;;;0.88;0.60;;;12.00;99.90;;;;;;5001774;28;20376;-78
2021/05/15 04:43:00;;;;;;;1.30;0.73;;;11.80;99.90;;;;;;4972377;28;20020;-78
2021/05/15 04:45:30;;;;;;;1.88;1.10;;;12.00;99.90;;;;;;4974076;28;20046;-78
2021/05/15 04:47:56;;;;;;;0.73;0.60;;;12.20;99.90;;;;;;4982846;28;20102;-78
2021/05/15 04:50:21;;;;;;;2.63;0.60;;;12.40;99.90;;;;;;4966056;29;20042;-78
2021/05/15 04:52:47;;;;;;;2.15;1.10;;;12.40;99.90;;;;;;4971340;28;20039;-78
2021/05/15 04:55:13;;;;;;;1.48;0.88;;;12.40;99.90;;;;;;4983041;28;20027;-78
2021/05/15 04:57:38;;;;;;;1.20;0.68;;;12.10;99.90;;;;;;4967594;29;20035;-78
2021/05/15 05:00:04;;;;;;;1.58;0.70;;;11.90;99.90;;;;;;4964221;28;20090;-77
2021/05/15 05:02:30;;;;;;;3.03;0.95;;;11.90;99.90;;;;;;4966806;28;20024;-78
2021/05/15 05:04:56;;;;;;;0.82;0.43;;;11.70;99.90;;;;;;4967672;28;20035;-79
2021/05/15 05:07:22;;;;;;;1.63;0.60;;;11.50;99.90;;;;;;4967279;28;20051;-79
2021/05/15 05:09:47;;;;;;;1.42;0.88;;;11.50;99.90;;;;;;4967329;28;20019;-78
2021/05/15 05:12:13;;;;;;;0.65;0.57;;;11.60;99.90;;;;;;4970266;28;20063;-79
2021/05/15 05:14:38;;;;;;;2.15;0.90;;;11.70;99.90;;;;;;4973960;28;20046;-78
2021/05/15 05:17:07;;;;;;;0.75;0.60;;;12.00;99.90;;;;;;4969377;29;20031;-78
2021/05/15 05:19:33;;;;;;;0.75;0.47;;;12.20;99.90;;;;;;4968344;29;20027;-78
2021/05/15 05:22:02;;;;;;;1.15;0.70;;;12.20;99.90;;;;;;4968966;29;20046;-79
2021/05/15 05:24:30;;;;;;;1.75;0.65;;;12.70;99.90;;;;;;4968071;28;20052;-78
2021/05/15 05:26:57;;;;;;;0.98;0.70;;;13.10;99.90;;;;;;4983060;28;20031;-78
2021/05/15 05:29:23;;;;;;;2.55;1.20;;;13.50;87.10;;;;;;4970175;29;20050;-80
2021/05/15 05:31:51;;;;;;;0.98;0.70;;;13.80;81.60;;;;;;4970347;28;20023;-80
2021/05/15 05:34:18;;;;;;;0.82;0.57;;;14.60;1.00;;;;;;4971363;28;20447;-80
2021/05/15 05:36:43;;;;;;;2.30;0.63;;;14.70;99.90;;;;;;4968908;28;20488;-79
2021/05/15 05:39:18;;;;;;;1.80;0.70;;;14.60;99.90;;;;;;4965920;29;20094;-78
2021/05/15 05:41:47;;;;;;;1.85;0.70;;;14.50;99.90;;;;;;4969797;28;20023;-78
2021/05/15 05:44:13;;;;;;;0.82;0.40;;;14.60;99.90;;;;;;4967751;28;20035;-79
2021/05/15 05:46:39;;;;;;;1.23;0.55;;;14.40;1.00;;;;;;4970382;28;20015;-78
2021/05/15 05:49:05;;;;;;;0.77;0.55;;;14.40;1.00;;;;;;4969435;28;20027;-78
2021/05/15 05:51:31;;;;;;;1.02;0.65;;;14.30;1.00;;;;;;4970053;29;20031;-79
2021/05/15 05:53:56;;;;;;;1.02;0.50;;;14.40;99.90;;;;;;4967794;28;20031;-79
2021/05/15 05:56:22;;;;;;;1.40;0.70;;;14.30;99.90;;;;;;4967523;29;20039;-78
2021/05/15 05:58:48;;;;;;;0.73;0.60;;;13.90;1.00;;;;;;4968836;28;20039;-78
2021/05/15 06:01:14;;;;;;;0.70;0.47;;;13.70;1.00;;;;;;4968415;28;20055;-79
2021/05/15 06:03:40;;;;;;;2.58;0.50;;;13.80;1.00;;;;;;4970363;28;20063;-79
2021/05/15 06:06:06;;;;;;;0.80;0.50;;;14.20;1.00;;;;;;4985202;28;20046;-79
2021/05/15 06:08:32;;;;;;;3.50;0.60;;;14.50;99.90;;;;;;4984892;28;20031;-79
2021/05/15 06:10:58;;;;;;;0.55;0.40;;;14.90;99.90;;;;;;4971445;28;20039;-80
2021/05/15 06:13:24;;;;;;;0.68;0.50;;;14.90;99.90;;;;;;4970985;28;20028;-79
2021/05/15 06:15:50;;;;;;;0.95;0.60;;;15.00;99.90;;;;;;4986574;28;20030;-79
2021/05/15 06:18:16;;;;;;;0.47;0.47;;;14.90;99.90;;;;;;4970930;28;20094;-79
2021/05/15 06:20:42;;;;;;;0.70;0.50;;;15.00;99.90;;;;;;4969808;29;20053;-78
2021/05/15 06:23:08;;;;;;;1.02;0.55;;;14.80;99.90;;;;;;4971080;28;20039;-78
2021/05/15 06:25:34;;;;;;;0.85;0.40;;;14.70;99.90;;;;;;4971505;28;20023;-79
2021/05/15 06:27:59;;;;;;;1.30;0.50;;;14.60;99.90;;;;;;4973309;29;20083;-78
2021/05/15 06:30:25;;;;;;;0.45;0.40;;;14.70;99.90;;;;;;4975644;29;20032;-79
2021/05/15 06:32:50;;;;;;;0.75;0.45;;;14.90;99.90;;;;;;4976444;28;20071;-79
2021/05/15 06:35:16;;;;;;;2.75;0.52;;;14.90;99.90;;;;;;4972301;28;20059;-77
2021/05/15 06:37:42;;;;;;;2.40;0.50;;;14.50;99.90;;;;;;4989419;28;20047;-78
2021/05/15 06:40:09;;;;;;;0.98;0.70;;;14.60;99.90;;;;;;4973601;28;20039;-78
2021/05/15 06:42:35;;;;;;;0.88;0.45;;;14.70;99.90;;;;;;4975041;28;20036;-79
2021/05/15 06:45:00;;;;;;;1.45;0.63;;;14.90;99.90;;;;;;4966704;28;20062;-79
2021/05/15 06:47:26;;;;;;;1.50;0.65;;;15.00;99.90;;;;;;4972833;29;20066;-80
2021/05/15 06:49:51;;;;;;;0.40;0.40;;;15.20;99.90;;;;;;4971670;28;20087;-79
2021/05/15 06:52:17;;;;;;;1.48;0.50;;;15.50;27.30;;;;;;4969846;28;20035;-78
2021/05/15 06:54:44;;;;;;;0.57;0.50;;;15.40;1.00;;;;;;4971288;28;20081;-79
2021/05/15 06:57:10;;;;;;;0.63;0.30;;;15.60;1.00;;;;;;4971733;28;20038;-80
2021/05/15 06:59:35;;;;;;;3.05;0.60;;;15.90;1.00;;;;;;4979084;28;20051;-79
2021/05/15 07:02:01;;;;;;;0.75;0.50;;;16.00;99.90;;;;;;4976065;28;20027;-79
2021/05/15 07:04:28;;;;;;;0.82;0.60;;;16.30;99.90;;;;;;4972678;28;20030;-79
2021/05/15 07:06:53;;;;;;;0.57;0.57;;;16.50;99.90;;;;;;4978816;28;21471;-80
2021/05/15 07:09:19;;;;;;;1.17;0.50;;;16.20;99.90;;;;;;4978971;28;20007;-80
2021/05/15 07:11:45;;;;;;;2.47;0.80;;;16.00;99.90;;;;;;4977036;28;20039;-79
2021/05/15 07:14:11;;;;;;;1.05;0.50;;;15.80;99.90;;;;;;4976387;28;20039;-80
2021/05/15 07:16:37;;;;;;;0.95;0.80;;;15.60;99.90;;;;;;4975811;28;20297;-78
2021/05/15 07:19:03;;;;;;;1.40;0.47;;;15.60;99.90;;;;;;4973935;28;20042;-79
2021/05/15 07:21:28;;;;;;;2.75;0.50;;;15.50;61.00;;;;;;4974768;28;20035;-81
2021/05/15 07:23:54;;;;;;;0.47;0.40;;;15.60;99.90;;;;;;4973799;28;20015;-79
2021/05/15 07:26:20;;;;;;;0.60;0.50;;;15.60;1.00;;;;;;4976271;28;20059;-79
2021/05/15 07:28:45;;;;;;;2.63;0.60;;;15.60;1.00;;;;;;4990351;28;20053;-79
2021/05/15 07:31:11;;;;;;;0.88;0.50;;;15.50;99.90;;;;;;4976824;29;20011;-79
2021/05/15 07:33:37;;;;;;;4.43;0.60;;;15.40;99.90;;;;;;4976303;28;20031;-79
2021/05/15 07:36:03;;;;;;;1.05;0.70;;;15.30;1.00;;;;;;4991302;28;20031;-79
2021/05/15 07:38:29;;;;;;;1.92;0.57;;;15.30;99.90;;;;;;4978028;28;20091;-79
2021/05/15 07:40:55;;;;;;;0.95;0.50;;;15.30;90.90;;;;;;4993522;28;20022;-79
2021/05/15 07:43:25;;;;;;;1.40;0.55;;;15.30;99.90;;;;;;4981054;28;20042;-80
2021/05/15 07:45:52;;;;;;;1.75;0.43;;;15.20;1.00;;;;;;4981191;28;20032;-79
2021/05/15 07:48:18;;;;;;;1.35;0.70;;;15.30;1.00;;;;;;4969172;29;20059;-79
2021/05/15 07:50:44;;;;;;;1.17;0.40;;;15.70;99.90;;;;;;4995904;28;20015;-79
2021/05/15 07:53:09;;;;;;;0.77;0.40;;;15.90;99.90;;;;;;4995758;28;20007;-79
2021/05/15 07:55:35;;;;;;;0.40;0.40;;;15.90;99.90;;;;;;4979114;29;20027;-78
2021/05/15 07:58:01;;;;;;;2.03;0.50;;;16.00;99.90;;;;;;4993484;28;20031;-80
2021/05/15 08:00:26;;;;;;;0.40;0.40;;;16.10;99.90;;;;;;4977751;29;20051;-80
2021/05/15 08:02:52;;;;;;;2.05;0.60;;;16.00;99.90;;;;;;4977960;28;20031;-79
2021/05/15 08:05:17;;;;;;;2.55;0.63;;;16.30;99.90;;;;;;4978946;28;20054;-80
2021/05/15 08:07:43;;;;;;;0.45;0.40;;;16.30;99.90;;;;;;4978654;29;20038;-79
2021/05/15 08:10:10;;;;;;;1.85;0.68;;;16.20;5.30;;;;;;4976148;29;20150;-80
2021/05/15 08:12:36;;;;;;;1.10;0.40;;;15.90;99.90;;;;;;4993695;28;20023;-80
2021/05/15 08:15:03;;;;;;;0.85;0.50;;;15.90;99.90;;;;;;4978596;28;20042;-79
2021/05/15 08:17:29;;;;;;;4.55;0.80;;;15.80;99.90;;;;;;5010507;28;20031;-80
2021/05/15 08:19:54;;;;;;;1.52;0.75;;;15.80;1.00;;;;;;4975833;28;20572;-80
2021/05/15 08:22:20;;;;;;;0.45;0.40;;;15.80;99.90;;;;;;4974759;28;20456;-80
2021/05/15 08:24:46;;;;;;;2.30;0.70;;;15.80;99.90;;;;;;4975337;28;20027;-79
2021/05/15 08:27:11;;;;;;;1.95;0.60;;;15.70;1.00;;;;;;4975719;28;20032;-80
2021/05/15 08:29:37;;;;;;;1.10;0.50;;;15.50;99.90;;;;;;4972074;29;20027;-80
2021/05/15 08:32:05;;;;;;;4.43;0.60;;;15.60;1.00;;;;;;4975531;28;20103;-80
2021/05/15 08:34:30;;;;;;;0.52;0.40;;;15.50;99.90;;;;;;4976358;28;20046;-81
2021/05/15 08:36:56;;;;;;;2.47;2.00;;;15.40;99.90;;;;;;4980414;28;20082;-79
2021/05/15 08:39:21;;;;;;;2.35;0.60;;;15.40;1.00;;;;;;4995343;28;20309;-79
2021/05/15 08:41:47;;;;;;;2.33;1.30;;;15.40;99.90;;;;;;4974442;28;20039;-81
2021/05/15 08:44:13;;;;;;;0.98;0.50;;;15.50;46.10;;;;;;4971743;28;20091;-79
2021/05/15 08:46:43;;;;;;;1.20;0.40;;;15.50;99.90;;;;;;4974137;28;20034;-80
2021/05/15 08:49:11;;;;;;;1.23;0.50;;;15.80;99.90;;;;;;4972086;28;20526;-82
2021/05/15 08:51:37;;;;;;;0.60;0.50;;;15.80;99.90;;;;;;4977632;28;20035;-79
2021/05/15 08:54:03;;;;;;;1.40;0.50;;;15.80;99.90;;;;;;4975716;28;20039;-80
2021/05/15 08:56:30;;;;;;;2.70;0.60;;;15.90;99.90;;;;;;4995442;28;20042;-81
2021/05/15 08:58:55;;;;;;;1.95;0.40;;;15.90;1.00;;;;;;4981389;28;20087;-82
2021/05/15 09:01:22;;;;;;;1.45;1.35;;;15.90;99.90;;;;;;4980985;28;20031;-82
2021/05/15 09:03:48;;;;;;;2.35;1.63;;;16.00;1.00;;;;;;4980414;28;20038;-81
2021/05/15 09:06:14;;;;;;;0.82;0.70;;;16.10;1.00;;;;;;4981442;28;20024;-82
2021/05/15 09:08:39;;;;;;;4.47;0.73;;;16.20;99.90;;;;;;4975046;28;20020;-81
2021/05/15 09:11:05;;;;;;;2.90;0.50;;;16.20;99.90;;;;;;4962819;28;20043;-80
2021/05/15 09:13:32;;;;;;;1.60;0.50;;;16.30;99.90;;;;;;4970162;29;20069;-80
2021/05/15 09:16:00;;;;;;;0.40;0.40;;;16.50;93.90;;;;;;4972213;28;20031;-80
2021/05/15 09:18:35;;;;;;;0.70;0.50;;;16.50;1.00;;;;;;4971581;28;20039;-83
2021/05/15 09:21:03;;;;;;;0.90;0.43;;;16.40;1.00;;;;;;4974712;28;20034;-82
2021/05/15 09:23:32;;;;;;;3.35;0.60;;;16.50;1.00;;;;;;4976148;28;20023;-79
2021/05/15 09:26:15;;;;;;;1.08;0.40;;;16.50;1.00;;;;;;4974863;28;20074;-79
2021/05/15 09:28:44;;;;;;;1.48;0.60;;;16.60;99.90;;;;;;4971889;28;20038;-80
2021/05/15 09:31:14;;;;;;;1.25;0.60;;;16.80;99.90;;;;;;4976237;28;20015;-80
2021/05/15 09:33:46;;;;;;;1.98;0.60;;;16.80;99.90;;;;;;4977281;28;20027;-83
2021/05/15 09:36:11;;;;;;;1.70;0.70;;;17.20;99.90;;;;;;4979729;28;20016;-81
2021/05/15 09:38:37;;;;;;;0.70;0.43;;;17.20;99.90;;;;;;4978837;28;20041;-81
2021/05/15 09:41:02;;;;;;;1.00;0.45;;;17.70;75.70;;;;;;4993788;28;20039;-81
2021/05/15 09:43:28;;;;;;;0.73;0.40;;;17.90;1.00;;;;;;4977772;28;20020;-81
2021/05/15 09:45:53;;;;;;;0.45;0.30;;;18.00;99.90;;;;;;4978881;28;20079;-80
2021/05/15 09:48:37;;;;;;;0.65;0.60;;;17.70;99.90;;;;;;4977911;28;20031;-80
2021/05/15 09:51:15;;;;;;;1.02;0.50;;;17.60;99.90;;;;;;4991468;28;20031;-81
2021/05/15 09:53:42;;;;;;;0.50;0.43;;;17.50;99.90;;;;;;4964079;28;20103;-77
2021/05/15 09:56:08;;;;;;;1.60;0.50;;;17.00;99.90;;;;;;4975083;28;20038;-77
2021/05/15 09:58:33;;;;;;;0.40;0.40;;;17.00;1.00;;;;;;4995294;28;20028;-76
2021/05/15 10:00:59;;;;;;;1.58;0.40;;;17.10;1.00;;;;;;4978572;28;20029;-77
2021/05/15 10:03:31;;;;;;;4.40;0.52;;;17.00;1.00;;;;;;4978405;28;20038;-78
2021/05/15 10:06:04;;;;;;;1.35;0.60;;;16.90;1.00;;;;;;4975504;28;20066;-75
2021/05/15 10:08:31;;;;;;;2.10;0.68;;;17.10;1.00;;;;;;4980852;28;20011;-76
2021/05/15 10:10:58;;;;;;;0.80;0.40;;;17.30;1.00;;;;;;4979448;28;20042;-76
2021/05/15 10:13:24;;;;;;;0.93;0.50;;;17.40;1.00;;;;;;4979003;28;20015;-75
2021/05/15 10:15:50;;;;;;;0.65;0.50;;;17.40;1.00;;;;;;4978175;28;20058;-76
2021/05/15 10:18:16;;;;;;;2.60;0.50;;;17.40;99.90;;;;;;4978568;28;20037;-76
2021/05/15 10:20:43;;;;;;;1.48;0.57;;;17.40;99.90;;;;;;4978871;28;20027;-75
2021/05/15 10:23:36;;;;;;;2.58;0.60;;;17.40;99.90;;;;;;4978343;28;20044;-75
2021/05/15 10:26:12;;;;;;;1.33;0.77;;;17.50;99.90;;;;;;4974253;28;20062;-77
2021/05/15 10:28:38;;;;;;;2.00;0.70;;;17.60;99.90;;;;;;4969457;28;20031;-77
2021/05/15 10:31:15;;;;;;;2.92;0.65;;;17.60;99.90;;;;;;4978762;28;20087;-77
2021/05/15 10:33:45;;;;;;;2.03;0.70;;;17.50;99.90;;;;;;4978834;28;20007;-77
2021/05/15 10:36:22;;;;;;;1.17;0.60;;;17.20;99.90;;;;;;4993874;28;20024;-76
2021/05/15 10:38:52;;;;;;;2.92;1.05;;;17.00;22.50;;;;;;4987101;28;20031;-78
2021/05/15 10:41:18;;;;;;;1.77;0.73;;;17.10;97.20;;;;;;4978219;28;20070;-77
2021/05/15 10:43:44;;;;;;;1.40;0.50;;;17.40;37.90;;;;;;4978843;28;20023;-76
2021/05/15 10:46:24;;;;;;;1.10;0.60;;;17.30;99.90;;;;;;4978002;28;20020;-75
2021/05/15 10:48:57;;;;;;;1.70;0.60;;;17.70;99.90;;;;;;4969710;28;20046;-76
2021/05/15 10:51:34;;;;;;;1.25;0.50;;;17.90;99.90;;;;;;4976281;28;20054;-76
2021/05/15 10:54:00;;;;;;;0.85;0.50;;;17.80;99.90;;;;;;4973709;28;20133;-76
2021/05/15 10:56:31;;;;;;;1.90;0.60;;;17.80;99.90;;;;;;4988976;28;20027;-75
2021/05/15 10:59:16;;;;;;;1.02;0.50;;;17.50;50.90;;;;;;4961108;29;20055;-76
2021/05/15 11:01:47;;;;;;;1.00;0.70;;;17.20;99.90;;;;;;4959230;28;20038;-77
2021/05/15 11:04:23;;;;;;;1.02;0.68;;;17.10;99.90;;;;;;4960372;28;20031;-77
2021/05/15 11:07:07;;;;;;;2.13;0.90;;;17.10;99.90;;;;;;4959319;28;20027;-77
2021/05/15 11:09:36;;;;;;;1.45;0.60;;;17.10;99.90;;;;;;4957169;29;20423;-76
2021/05/15 11:12:22;;;;;;;1.45;0.50;;;17.20;99.90;;;;;;4964642;28;20087;-77
2021/05/15 11:14:49;;;;;;;1.33;0.90;;;17.30;62.60;;;;;;4967748;29;20035;-75
2021/05/15 11:17:21;;;;;;;1.58;0.82;;;17.30;20.90;;;;;;4967937;28;20094;-76
2021/05/15 11:19:51;;;;;;;2.45;1.02;;;17.50;1.00;;;;;;4970484;29;20026;-76
2021/05/15 11:22:17;;;;;;;1.85;0.75;;;17.50;1.00;;;;;;4971356;29;20038;-76
2021/05/15 11:24:53;;;;;;;1.40;0.65;;;17.50;1.00;;;;;;4976854;28;20027;-76
2021/05/15 11:27:19;;;;;;;2.10;0.70;;;17.40;1.00;;;;;;4973452;28;20047;-74
2021/05/15 11:29:49;;;;;;;3.22;0.73;;;17.40;1.00;;;;;;4978765;28;20031;-74
2021/05/15 11:32:17;;;;;;;2.58;0.80;;;17.30;1.00;;;;;;4976223;28;20051;-75
2021/05/15 11:34:44;;;;;;;1.20;0.70;;;17.40;1.00;;;;;;4977044;28;20011;-74
2021/05/15 11:37:12;;;;;;;2.85;0.93;;;17.20;1.00;;;;;;4977689;28;20049;-75
2021/05/15 11:39:38;;;;;;;1.67;0.60;;;17.20;1.00;;;;;;4992304;28;20027;-74
2021/05/15 11:42:13;;;;;;;2.33;0.60;;;17.30;1.00;;;;;;4977205;28;20023;-74
2021/05/15 11:44:41;;;;;;;1.95;0.55;;;17.50;1.00;;;;;;4975689;28;20087;-74
2021/05/15 11:47:10;;;;;;;2.55;0.60;;;17.60;1.00;;;;;;5008647;28;20034;-74
2021/05/15 11:49:38;;;;;;;1.65;0.68;;;17.80;99.90;;;;;;4978338;28;20027;-74
2021/05/15 11:52:08;;;;;;;2.30;0.40;;;18.10;99.90;;;;;;4977923;28;20031;-75
2021/05/15 11:54:35;;;;;;;2.58;0.57;;;18.40;99.90;;;;;;4978124;28;20079;-76
2021/05/15 11:57:02;;;;;;;0.93;0.50;;;18.60;99.90;;;;;;4977732;28;20035;-75
2021/05/15 11:59:31;;;;;;;1.15;0.80;;;19.20;99.90;;;;;;4977412;28;20049;-74
2021/05/15 12:01:58;;;;;;;2.20;0.70;;;19.00;99.90;;;;;;4976595;28;20038;-74
2021/05/15 12:04:28;;;;;;;1.35;0.60;;;19.10;99.90;;;;;;4977249;28;20034;-75
2021/05/15 12:06:59;;;;;;;2.50;0.70;;;18.70;99.90;;;;;;4978004;28;20023;-74
2021/05/15 12:09:27;;;;;;;2.35;1.15;;;18.70;99.90;;;;;;4975617;28;20051;-74
2021/05/15 12:12:06;;;;;;;0.88;0.40;;;18.60;99.90;;;;;;4971294;28;20047;-76
2021/05/15 12:14:32;;;;;;;1.05;0.68;;;18.70;99.90;;;;;;4959183;28;20078;-74
2021/05/15 12:17:20;;;;;;;2.28;0.50;;;18.80;99.90;;;;;;4958036;28;20043;-75
2021/05/15 12:19:55;;;;;;;1.50;0.55;;;18.60;99.90;;;;;;4957178;28;20391;-74
2021/05/15 12:22:26;;;;;;;2.47;0.60;;;19.00;99.90;;;;;;4955047;28;20024;-75
2021/05/15 12:24:52;;;;;;;2.58;0.80;;;18.90;99.90;;;;;;4960197;28;20443;-74
2021/05/15 12:27:23;;;;;;;1.77;1.00;;;18.70;99.90;;;;;;4959881;29;20106;-73
2021/05/15 12:30:00;;;;;;;2.00;0.52;;;18.80;99.90;;;;;;4959553;29;20495;-74
2021/05/15 12:32:27;;;;;;;2.35;1.00;;;18.80;99.90;;;;;;4959195;28;20039;-75
2021/05/15 12:35:06;;;;;;;1.52;0.68;;;18.70;99.90;;;;;;4959012;28;20019;-75
2021/05/15 12:37:34;;;;;;;2.50;0.70;;;19.10;99.90;;;;;;4958232;28;20035;-74
2021/05/15 12:40:04;;;;;;;1.55;0.60;;;19.10;99.90;;;;;;4959048;28;20029;-75
2021/05/15 12:42:30;;;;;;;1.75;0.55;;;19.20;99.90;;;;;;4958767;28;20051;-75
2021/05/15 12:45:09;;;;;;;1.65;0.88;;;19.50;99.90;;;;;;4958875;28;20527;-74
2021/05/15 12:47:35;;;;;;;2.15;0.75;;;19.30;99.90;;;;;;4965315;28;20023;-73
2021/05/15 12:50:02;;;;;;;3.33;0.55;;;19.10;99.90;;;;;;4960760;28;20034;-74
2021/05/15 12:52:35;;;;;;;1.20;0.50;;;18.70;99.90;;;;;;4959263;28;20510;-73